Terminal Aerodrome Forecast
Issued by NWS Mt. Holly, NJ

Home | Current Version | Previous Version | Text Only | Print | Product List | Glossary On
Versions: 1 2 3 4 5 6 7 8 9 10 11 12 13 14 15 16 17 18 19 20 21 22 23 24 25 26 27 28 29 30
000
FTUS41 KPHI 261123
TAFRDG
TAF
KRDG 261123Z 2612/2712 08005KT P6SM SCT020 OVC050
      TEMPO 2612/2614 5SM -SHRA BKN015
     FM261400 VRB03KT P6SM OVC025
     FM261600 14004KT P6SM SCT025 BKN035
     FM270900 20003KT P6SM SCT008 BKN015=

USA.gov is the U.S. government's official web portal to all federal, state and local government web resources and services.